createdAt,value
2022-12-31T00:01:41.546Z,1.60
2022-12-31T00:04:09.208Z,1.30
2022-12-31T00:06:37.556Z,1.40
2022-12-31T00:09:08.632Z,1.60
2022-12-31T00:11:37.380Z,1.50
2022-12-31T00:14:05.805Z,1.30
2022-12-31T00:16:36.428Z,1.30
2022-12-31T00:19:06.102Z,1.10
2022-12-31T00:21:35.179Z,1.33
2022-12-31T00:24:04.393Z,1.40
2022-12-31T00:26:35.262Z,1.40
2022-12-31T00:29:03.842Z,1.30
2022-12-31T00:31:33.838Z,1.30
2022-12-31T00:34:02.072Z,1.60
2022-12-31T00:36:31.865Z,1.30
2022-12-31T00:39:01.727Z,1.47
2022-12-31T00:41:30.207Z,1.52
2022-12-31T00:43:59.463Z,1.30
2022-12-31T00:46:27.290Z,1.13
2022-12-31T00:48:55.539Z,1.30
2022-12-31T00:51:27.226Z,1.58
2022-12-31T00:53:55.132Z,1.50
2022-12-31T00:56:24.977Z,1.10
2022-12-31T00:58:53.312Z,1.50
2022-12-31T01:01:24.321Z,1.40
2022-12-31T01:03:55.133Z,1.52
2022-12-31T01:06:23.329Z,1.23
2022-12-31T01:08:51.641Z,1.52
2022-12-31T01:11:22.111Z,1.30
2022-12-31T01:13:52.429Z,1.30
2022-12-31T01:16:24.396Z,1.30
2022-12-31T01:18:52.780Z,1.50
2022-12-31T01:21:20.928Z,1.45
2022-12-31T01:23:49.135Z,1.40
2022-12-31T01:26:19.257Z,1.17
2022-12-31T01:28:47.583Z,1.40
2022-12-31T01:31:17.256Z,1.30
2022-12-31T01:33:46.920Z,1.17
2022-12-31T01:36:20.364Z,1.30
2022-12-31T01:38:51.655Z,1.20
2022-12-31T01:41:21.273Z,1.20
2022-12-31T01:43:51.368Z,0.93
2022-12-31T01:46:26.344Z,1.00
2022-12-31T01:48:59.858Z,1.00
2022-12-31T01:51:31.332Z,1.10
2022-12-31T01:54:01.331Z,1.15
2022-12-31T01:56:29.296Z,1.10
2022-12-31T01:58:58.567Z,1.15
2022-12-31T02:01:29.416Z,1.10
2022-12-31T02:03:58.630Z,1.20
2022-12-31T02:06:30.872Z,1.00
2022-12-31T02:08:59.429Z,1.00
2022-12-31T02:11:29.563Z,1.05
2022-12-31T02:14:01.502Z,1.08
2022-12-31T02:16:36.707Z,1.00
2022-12-31T02:19:27.021Z,0.80
2022-12-31T02:22:00.039Z,1.00
2022-12-31T02:24:43.849Z,1.00
2022-12-31T02:27:17.297Z,0.98
2022-12-31T02:30:07.659Z,0.90
2022-12-31T02:32:48.648Z,0.80
2022-12-31T02:35:22.894Z,0.98
2022-12-31T02:37:56.654Z,1.08
2022-12-31T02:40:24.553Z,1.00
2022-12-31T02:42:55.533Z,1.02
2022-12-31T02:45:30.680Z,1.00
2022-12-31T02:48:18.110Z,1.08
2022-12-31T02:50:58.995Z,0.90
2022-12-31T02:53:39.716Z,1.20
2022-12-31T02:56:14.602Z,0.90
2022-12-31T02:59:08.183Z,1.00
2022-12-31T03:01:59.931Z,0.70
2022-12-31T03:04:36.065Z,0.80
2022-12-31T03:07:06.032Z,0.80
2022-12-31T03:09:34.309Z,0.70
2022-12-31T03:12:20.431Z,0.80
2022-12-31T03:14:48.081Z,0.60
2022-12-31T03:17:17.120Z,0.77
2022-12-31T03:20:02.337Z,0.70
2022-12-31T03:22:30.238Z,0.70
2022-12-31T03:25:21.008Z,0.70
2022-12-31T03:30:18.813Z,0.65
2022-12-31T03:32:49.025Z,0.68
2022-12-31T03:35:20.153Z,0.90
2022-12-31T03:37:50.098Z,0.70
2022-12-31T03:40:18.888Z,0.80
2022-12-31T03:42:46.786Z,0.50
2022-12-31T03:45:14.904Z,0.60
2022-12-31T03:47:42.753Z,0.75
2022-12-31T03:50:13.881Z,0.68
2022-12-31T03:52:41.626Z,0.60
2022-12-31T03:55:10.753Z,0.63
2022-12-31T03:57:38.979Z,0.70
2022-12-31T04:00:09.328Z,0.65
2022-12-31T04:02:37.541Z,0.85
2022-12-31T04:05:06.070Z,0.60
2022-12-31T04:07:35.129Z,0.70
2022-12-31T04:10:03.079Z,0.52
2022-12-31T04:12:30.756Z,0.68
2022-12-31T04:14:58.478Z,0.70
2022-12-31T04:17:26.960Z,0.77
2022-12-31T04:19:54.673Z,0.70
2022-12-31T04:22:22.323Z,0.60
2022-12-31T04:24:51.400Z,0.50
2022-12-31T04:27:19.099Z,0.55
2022-12-31T04:29:46.781Z,0.55
2022-12-31T04:32:14.475Z,0.85
2022-12-31T04:34:42.172Z,0.65
2022-12-31T04:37:09.810Z,0.50
2022-12-31T04:39:37.479Z,0.50
2022-12-31T04:42:06.604Z,0.50
2022-12-31T04:44:35.094Z,0.88
2022-12-31T04:47:02.873Z,0.70
2022-12-31T04:49:30.532Z,0.60
2022-12-31T04:51:58.195Z,0.43
2022-12-31T04:54:25.867Z,0.50
2022-12-31T04:56:53.539Z,0.68
2022-12-31T04:59:22.598Z,0.70
2022-12-31T05:01:50.509Z,0.60
2022-12-31T05:04:18.282Z,0.52
2022-12-31T05:06:45.986Z,0.60
2022-12-31T05:09:13.780Z,0.60
2022-12-31T05:11:41.441Z,0.60
2022-12-31T05:14:09.094Z,0.77
2022-12-31T05:16:38.211Z,0.52
2022-12-31T05:19:09.375Z,0.63
2022-12-31T05:21:37.296Z,0.60
2022-12-31T05:24:05.557Z,0.43
2022-12-31T05:26:33.318Z,0.50
2022-12-31T05:29:01.291Z,0.57
2022-12-31T05:31:28.942Z,0.50
2022-12-31T05:33:58.426Z,0.57
2022-12-31T05:36:26.026Z,0.60
2022-12-31T05:38:53.722Z,0.65
2022-12-31T05:41:21.338Z,0.50
2022-12-31T05:43:49.005Z,0.73
2022-12-31T05:46:17.077Z,0.73
2022-12-31T05:48:44.776Z,0.60
2022-12-31T05:51:13.795Z,0.60
2022-12-31T05:53:41.427Z,0.68
2022-12-31T05:56:09.106Z,0.70
2022-12-31T05:58:36.803Z,0.70
2022-12-31T06:01:04.506Z,0.80
2022-12-31T06:03:32.208Z,0.73
2022-12-31T06:06:02.282Z,0.50
2022-12-31T06:08:31.298Z,0.70
2022-12-31T06:10:58.950Z,0.80
2022-12-31T06:13:26.597Z,0.80
2022-12-31T06:15:54.394Z,0.90
2022-12-31T06:18:22.122Z,0.90
2022-12-31T06:20:49.755Z,0.90
2022-12-31T06:23:17.481Z,0.70
2022-12-31T06:25:46.472Z,0.50
2022-12-31T06:28:20.013Z,0.70
2022-12-31T06:30:48.388Z,0.60
2022-12-31T06:33:16.115Z,0.65
2022-12-31T06:35:43.723Z,0.60
2022-12-31T06:38:11.442Z,0.70
2022-12-31T06:40:39.193Z,0.75
2022-12-31T06:43:08.174Z,0.90
2022-12-31T06:45:35.892Z,0.85
2022-12-31T06:48:03.563Z,0.63
2022-12-31T06:50:31.163Z,0.90
2022-12-31T06:52:58.820Z,0.80
2022-12-31T06:55:27.347Z,0.80
2022-12-31T06:57:55.585Z,0.60
2022-12-31T07:00:25.303Z,0.60
2022-12-31T07:03:14.903Z,0.70
2022-12-31T07:05:48.119Z,0.40
2022-12-31T07:08:31.341Z,0.50
2022-12-31T07:11:06.242Z,0.68
2022-12-31T07:13:53.354Z,0.70
2022-12-31T07:16:33.363Z,0.68
2022-12-31T07:19:13.080Z,0.70
2022-12-31T07:21:42.306Z,0.70
2022-12-31T07:24:11.926Z,0.70
2022-12-31T07:26:56.828Z,0.63
2022-12-31T07:29:38.708Z,0.52
2022-12-31T07:32:20.303Z,0.50
2022-12-31T07:34:56.840Z,0.70
2022-12-31T07:37:36.182Z,0.50
2022-12-31T07:40:12.277Z,0.60
2022-12-31T07:42:45.751Z,0.40
2022-12-31T07:45:19.842Z,0.60
2022-12-31T07:47:49.571Z,0.77
2022-12-31T07:50:19.708Z,0.40
2022-12-31T07:52:47.871Z,0.47
2022-12-31T07:55:15.754Z,0.70
2022-12-31T07:57:51.301Z,0.50
2022-12-31T08:00:19.996Z,0.52
2022-12-31T08:03:03.633Z,0.50
2022-12-31T08:05:34.743Z,0.60
2022-12-31T08:08:13.207Z,0.60
2022-12-31T08:10:49.543Z,0.68
2022-12-31T08:13:18.777Z,0.50
2022-12-31T08:15:46.991Z,0.50
2022-12-31T08:18:16.467Z,0.50
2022-12-31T08:20:56.654Z,0.30
2022-12-31T08:23:30.022Z,0.40
2022-12-31T08:26:11.970Z,0.65
2022-12-31T08:28:56.111Z,0.63
2022-12-31T08:31:29.825Z,0.50
2022-12-31T08:34:08.320Z,0.50
2022-12-31T08:36:46.388Z,0.82
2022-12-31T08:39:24.406Z,0.68
2022-12-31T08:41:55.992Z,0.68
2022-12-31T08:44:35.100Z,0.75
2022-12-31T08:47:15.280Z,0.70
2022-12-31T08:49:44.870Z,0.63
2022-12-31T08:52:24.410Z,0.50
2022-12-31T08:54:53.139Z,1.25
2022-12-31T08:57:27.859Z,0.57
2022-12-31T09:00:05.789Z,0.50
2022-12-31T09:02:57.732Z,0.80
2022-12-31T09:05:32.644Z,0.70
2022-12-31T09:08:10.770Z,0.50
2022-12-31T09:10:43.831Z,21.02
2022-12-31T09:13:19.146Z,1.08
2022-12-31T09:15:52.762Z,0.60
2022-12-31T09:18:20.943Z,0.50
2022-12-31T09:20:50.514Z,0.70
2022-12-31T09:23:18.776Z,0.70
2022-12-31T09:25:56.632Z,0.52
2022-12-31T09:28:37.848Z,0.85
2022-12-31T09:31:12.470Z,0.60
2022-12-31T09:33:47.992Z,0.70
2022-12-31T09:36:23.336Z,0.60
2022-12-31T09:39:01.894Z,0.70
2022-12-31T09:42:03.132Z,0.63
2022-12-31T09:45:03.068Z,0.60
2022-12-31T09:47:59.127Z,0.80
2022-12-31T09:50:55.073Z,0.70
2022-12-31T09:53:39.509Z,0.70
2022-12-31T09:56:18.098Z,0.70
2022-12-31T09:58:56.270Z,0.47
2022-12-31T10:01:36.737Z,0.70
2022-12-31T10:06:52.222Z,0.70
2022-12-31T10:09:41.629Z,0.60
2022-12-31T10:12:41.843Z,0.65
2022-12-31T10:15:33.788Z,0.60
2022-12-31T10:18:12.621Z,0.68
2022-12-31T10:20:51.938Z,0.70
2022-12-31T10:23:46.068Z,0.60
2022-12-31T10:26:29.065Z,0.60
2022-12-31T10:29:00.751Z,0.80
2022-12-31T10:31:39.410Z,0.70
2022-12-31T10:34:16.189Z,0.73
2022-12-31T10:36:57.151Z,0.77
2022-12-31T10:39:43.417Z,0.50
2022-12-31T10:42:36.727Z,0.55
2022-12-31T10:45:57.946Z,0.70
2022-12-31T10:49:06.356Z,0.60
2022-12-31T10:52:16.773Z,0.60
2022-12-31T10:55:06.845Z,0.80
2022-12-31T10:58:04.581Z,0.80
2022-12-31T11:00:39.501Z,0.80
2022-12-31T11:03:43.203Z,0.80
2022-12-31T11:06:39.305Z,0.75
2022-12-31T11:09:39.679Z,0.70
2022-12-31T11:12:26.511Z,0.73
2022-12-31T11:15:17.846Z,0.60
2022-12-31T11:17:59.179Z,0.60
2022-12-31T11:20:40.509Z,0.90
2022-12-31T11:23:22.074Z,0.60
2022-12-31T11:26:02.184Z,0.90
2022-12-31T11:29:03.835Z,0.80
2022-12-31T11:31:49.750Z,0.90
2022-12-31T11:34:32.981Z,1.00
2022-12-31T11:37:19.369Z,0.68
2022-12-31T11:39:54.201Z,0.80
2022-12-31T11:42:25.807Z,0.77
2022-12-31T11:45:00.732Z,0.85
2022-12-31T11:48:20.548Z,0.95
2022-12-31T11:50:45.738Z,0.80
2022-12-31T11:53:37.762Z,2.05
2022-12-31T11:56:15.056Z,0.90
2022-12-31T11:58:47.827Z,1.00
2022-12-31T12:01:20.943Z,1.25
2022-12-31T12:03:50.190Z,1.02
2022-12-31T12:06:20.739Z,0.75
2022-12-31T12:11:21.598Z,1.10
2022-12-31T12:13:49.495Z,1.15
2022-12-31T12:16:17.715Z,0.95
2022-12-31T12:18:47.693Z,1.73
2022-12-31T12:21:18.949Z,1.02
2022-12-31T12:23:56.644Z,0.90
2022-12-31T12:26:30.879Z,0.77
2022-12-31T12:29:01.914Z,0.63
2022-12-31T12:31:30.534Z,0.70
2022-12-31T12:33:58.172Z,0.80
2022-12-31T12:36:27.219Z,0.70
2022-12-31T12:39:02.963Z,0.90
2022-12-31T12:41:30.647Z,0.80
2022-12-31T12:44:07.121Z,1.00
2022-12-31T12:46:37.055Z,0.80
2022-12-31T12:49:05.118Z,0.75
2022-12-31T12:51:55.287Z,1.20
2022-12-31T12:54:42.027Z,0.77
2022-12-31T12:57:19.626Z,0.90
2022-12-31T13:00:07.544Z,1.00
2022-12-31T13:03:09.262Z,0.80
2022-12-31T13:05:48.331Z,1.15
2022-12-31T13:08:30.032Z,1.00
2022-12-31T13:11:11.512Z,0.90
2022-12-31T13:13:48.266Z,1.48
2022-12-31T13:16:23.796Z,0.75
2022-12-31T13:19:00.112Z,0.80
2022-12-31T13:21:45.349Z,0.90
2022-12-31T13:24:24.006Z,0.73
2022-12-31T13:27:00.255Z,1.00
2022-12-31T13:29:32.177Z,0.98
2022-12-31T13:32:03.350Z,0.90
2022-12-31T13:34:33.818Z,0.90
2022-12-31T13:37:07.776Z,0.90
2022-12-31T13:39:42.787Z,0.85
2022-12-31T13:42:17.652Z,1.00
2022-12-31T13:44:52.426Z,0.80
2022-12-31T13:47:28.775Z,1.15
2022-12-31T13:50:00.401Z,0.90
2022-12-31T13:52:31.658Z,1.10
2022-12-31T13:55:10.360Z,0.70
2022-12-31T13:57:43.205Z,0.80
2022-12-31T14:00:20.949Z,1.00
2022-12-31T14:02:56.722Z,0.80
2022-12-31T14:05:31.068Z,0.73
2022-12-31T14:08:01.650Z,1.23
2022-12-31T14:13:17.671Z,0.88
2022-12-31T14:15:58.090Z,0.85
2022-12-31T14:18:33.996Z,0.63
2022-12-31T14:21:10.252Z,1.13
2022-12-31T14:23:47.433Z,0.80
2022-12-31T14:26:27.362Z,1.00
2022-12-31T14:29:07.279Z,1.20
2022-12-31T14:31:56.599Z,0.90
2022-12-31T14:34:34.083Z,0.98
2022-12-31T14:37:08.613Z,1.10
2022-12-31T14:39:49.492Z,1.17
2022-12-31T14:42:30.768Z,1.10
2022-12-31T14:45:16.290Z,1.20
2022-12-31T14:47:51.254Z,1.30
2022-12-31T14:50:23.494Z,0.93
2022-12-31T14:52:53.954Z,1.00
2022-12-31T15:00:55.212Z,1.30
2022-12-31T15:03:34.316Z,1.40
2022-12-31T15:06:12.924Z,1.30
2022-12-31T15:08:50.244Z,0.90
2022-12-31T15:11:32.025Z,1.30
2022-12-31T15:14:37.222Z,1.20
2022-12-31T15:17:16.372Z,1.10
2022-12-31T15:20:17.645Z,1.00
2022-12-31T15:22:47.537Z,1.10
2022-12-31T15:25:36.795Z,1.20
2022-12-31T15:28:22.811Z,0.95
2022-12-31T15:30:53.151Z,1.45
2022-12-31T15:33:28.981Z,1.50
2022-12-31T15:35:58.360Z,1.77
2022-12-31T15:38:35.493Z,1.80
2022-12-31T15:41:16.874Z,1.90
2022-12-31T15:43:49.492Z,1.67
2022-12-31T15:46:22.200Z,1.70
2022-12-31T15:48:55.428Z,1.77
2022-12-31T15:51:30.431Z,3.92
2022-12-31T15:54:00.749Z,3.17
2022-12-31T15:56:34.394Z,2.13
2022-12-31T15:59:05.627Z,2.75
2022-12-31T16:01:37.017Z,2.10
2022-12-31T16:04:08.708Z,2.10
2022-12-31T16:06:38.515Z,2.03
2022-12-31T16:09:10.795Z,2.47
2022-12-31T16:11:41.645Z,2.58
2022-12-31T16:14:18.441Z,2.67
2022-12-31T16:16:55.111Z,2.53
2022-12-31T16:19:29.435Z,2.30
2022-12-31T16:22:01.609Z,2.42
2022-12-31T16:24:31.107Z,3.50
2022-12-31T16:27:02.206Z,5.95
2022-12-31T16:29:30.769Z,4.47
2022-12-31T16:31:59.843Z,4.03
2022-12-31T16:34:28.773Z,3.55
2022-12-31T16:36:58.902Z,6.03
2022-12-31T16:39:29.791Z,7.25
2022-12-31T16:42:18.541Z,3.92
2022-12-31T16:44:46.764Z,4.15
2022-12-31T16:47:21.665Z,4.55
2022-12-31T16:49:56.522Z,5.60
2022-12-31T16:52:29.202Z,4.32
2022-12-31T16:54:58.139Z,3.67
2022-12-31T16:57:28.278Z,3.58
2022-12-31T16:59:59.319Z,3.40
2022-12-31T17:02:35.090Z,3.33
2022-12-31T17:05:03.117Z,3.17
2022-12-31T17:07:41.790Z,3.92
2022-12-31T17:10:19.343Z,2.65
2022-12-31T17:15:41.646Z,3.35
2022-12-31T17:18:18.388Z,2.53
2022-12-31T17:20:46.232Z,2.78
2022-12-31T17:23:23.731Z,2.33
2022-12-31T17:25:58.864Z,2.38
2022-12-31T17:28:27.978Z,2.35
2022-12-31T17:31:01.024Z,2.97
2022-12-31T17:33:32.064Z,3.13
2022-12-31T17:36:16.137Z,3.05
2022-12-31T17:38:44.107Z,3.28
2022-12-31T17:41:24.356Z,3.00
2022-12-31T17:43:55.121Z,2.88
2022-12-31T17:46:24.241Z,2.50
2022-12-31T17:48:57.308Z,2.55
2022-12-31T17:51:25.002Z,2.53
2022-12-31T17:53:52.675Z,3.03
2022-12-31T17:56:21.505Z,2.75
2022-12-31T17:58:52.585Z,2.53
2022-12-31T18:01:22.556Z,2.65
2022-12-31T18:03:50.616Z,2.42
2022-12-31T18:06:20.197Z,2.80
2022-12-31T18:08:47.981Z,2.60
2022-12-31T18:11:18.798Z,3.00
2022-12-31T18:13:47.040Z,2.70
2022-12-31T18:16:15.367Z,2.80
2022-12-31T18:18:45.134Z,3.20
2022-12-31T18:21:21.009Z,2.75
2022-12-31T18:23:49.913Z,2.53
2022-12-31T18:26:19.798Z,2.75
2022-12-31T18:28:48.160Z,2.63
2022-12-31T18:31:20.011Z,3.70
2022-12-31T18:33:48.460Z,3.58
2022-12-31T18:36:20.118Z,5.25
2022-12-31T18:38:48.379Z,3.60
2022-12-31T18:41:18.840Z,4.05
2022-12-31T18:46:15.104Z,3.80
2022-12-31T18:48:43.021Z,3.22
2022-12-31T18:51:15.034Z,3.42
2022-12-31T18:53:44.582Z,3.55
2022-12-31T18:56:13.874Z,4.10
2022-12-31T18:58:42.195Z,3.65
2022-12-31T19:01:26.403Z,4.85
2022-12-31T19:03:54.975Z,4.15
2022-12-31T19:06:22.837Z,4.07
2022-12-31T19:08:52.173Z,5.00
2022-12-31T19:11:20.201Z,5.50
2022-12-31T19:13:48.017Z,4.97
2022-12-31T19:16:15.689Z,5.40
2022-12-31T19:18:43.337Z,5.13
2022-12-31T19:21:16.496Z,5.10
2022-12-31T19:23:44.157Z,5.03
2022-12-31T19:26:16.319Z,5.50
2022-12-31T19:28:46.130Z,5.30
2022-12-31T19:31:14.400Z,10.30
2022-12-31T19:33:42.405Z,5.70
2022-12-31T19:36:15.515Z,5.20
2022-12-31T19:38:44.259Z,4.93
2022-12-31T19:41:18.639Z,4.95
2022-12-31T19:43:46.710Z,5.10
2022-12-31T19:46:15.330Z,4.70
2022-12-31T19:48:43.608Z,5.45
2022-12-31T19:51:16.524Z,5.05
2022-12-31T19:53:44.694Z,4.78
2022-12-31T19:56:14.003Z,6.38
2022-12-31T19:58:43.086Z,5.10
2022-12-31T20:01:19.509Z,5.68
2022-12-31T20:03:47.484Z,5.60
2022-12-31T20:06:15.876Z,5.40
2022-12-31T20:08:44.241Z,5.47
2022-12-31T20:11:14.163Z,5.35
2022-12-31T20:13:43.855Z,5.38
2022-12-31T20:16:13.187Z,5.10
2022-12-31T20:18:42.347Z,4.47
2022-12-31T20:21:11.762Z,4.30
2022-12-31T20:23:39.474Z,5.68
2022-12-31T20:26:07.440Z,5.05
2022-12-31T20:28:36.200Z,5.53
2022-12-31T20:31:07.769Z,6.13
2022-12-31T20:33:35.727Z,5.93
2022-12-31T20:36:04.152Z,6.45
2022-12-31T20:38:32.211Z,6.43
2022-12-31T20:41:04.228Z,6.45
2022-12-31T20:43:32.510Z,6.53
2022-12-31T20:46:00.393Z,8.32
2022-12-31T20:48:29.397Z,6.95
2022-12-31T20:50:57.685Z,5.90
2022-12-31T20:53:25.462Z,5.18
2022-12-31T20:55:53.133Z,5.75
2022-12-31T20:58:20.949Z,5.00
2022-12-31T21:00:50.021Z,5.05
2022-12-31T21:03:37.298Z,5.53
2022-12-31T21:06:07.998Z,8.32
2022-12-31T21:08:36.052Z,6.80
2022-12-31T21:11:24.546Z,5.28
2022-12-31T21:13:51.504Z,4.90
2022-12-31T21:16:19.479Z,4.63
2022-12-31T21:18:47.207Z,4.70
2022-12-31T21:21:16.257Z,5.10
2022-12-31T21:23:43.980Z,6.30
2022-12-31T21:26:11.644Z,5.13
2022-12-31T21:28:39.391Z,5.25
2022-12-31T21:31:08.765Z,6.43
2022-12-31T21:33:36.552Z,5.70
2022-12-31T21:36:05.071Z,5.32
2022-12-31T21:38:37.004Z,5.88
2022-12-31T21:41:05.640Z,5.32
2022-12-31T21:43:33.281Z,4.97
2022-12-31T21:46:02.542Z,5.45
2022-12-31T21:48:30.315Z,4.43
2022-12-31T21:51:07.867Z,4.18
2022-12-31T21:53:37.703Z,4.32
2022-12-31T21:56:08.446Z,4.07
2022-12-31T21:58:36.503Z,3.90
2022-12-31T22:01:22.164Z,3.70
2022-12-31T22:03:49.948Z,4.30
2022-12-31T22:06:21.554Z,5.95
2022-12-31T22:08:52.021Z,3.63
2022-12-31T22:13:48.997Z,3.70
2022-12-31T22:16:17.191Z,4.65
2022-12-31T22:18:45.162Z,3.78
2022-12-31T22:21:18.982Z,3.80
2022-12-31T22:23:48.851Z,4.57
2022-12-31T22:26:21.136Z,4.25
2022-12-31T22:28:49.033Z,4.47
2022-12-31T22:31:19.048Z,4.55
2022-12-31T22:33:47.055Z,5.60
2022-12-31T22:36:16.434Z,5.18
2022-12-31T22:38:44.421Z,5.50
2022-12-31T22:41:14.091Z,5.72
2022-12-31T22:43:45.541Z,5.57
2022-12-31T22:46:14.957Z,5.70
2022-12-31T22:48:43.235Z,5.40
2022-12-31T22:51:12.065Z,5.57
2022-12-31T22:53:41.131Z,7.00
2022-12-31T22:56:09.289Z,5.68
2022-12-31T22:58:37.312Z,5.30
2022-12-31T23:01:07.481Z,4.93
2022-12-31T23:03:35.474Z,7.68
2022-12-31T23:06:03.229Z,17.80
2022-12-31T23:08:30.903Z,16.42
2022-12-31T23:11:05.411Z,29.35
2022-12-31T23:13:55.642Z,34.78
2022-12-31T23:16:44.132Z,40.80
2022-12-31T23:19:29.850Z,35.97
2022-12-31T23:22:15.159Z,29.77
2022-12-31T23:24:43.153Z,43.97
2022-12-31T23:27:11.505Z,42.45
2022-12-31T23:29:46.522Z,42.47
2022-12-31T23:32:16.755Z,43.85
2022-12-31T23:34:45.170Z,47.05
2022-12-31T23:37:13.127Z,48.85
2022-12-31T23:39:40.746Z,47.53
2022-12-31T23:42:08.658Z,44.97
2022-12-31T23:44:36.316Z,45.22
2022-12-31T23:47:04.129Z,43.47
2022-12-31T23:49:33.230Z,35.20
2022-12-31T23:52:00.865Z,32.22
2022-12-31T23:54:29.197Z,28.70
2022-12-31T23:56:56.998Z,28.08
2022-12-31T23:59:24.651Z,28.15
